Sonora, Texas
Current Conditions -  °F | °C
As of 9:15 PM on Monday 20 Oct 2014 (Local Time) from KSOA Reporting Station
Clear Clear  
Wind Chill: 72°   Ceiling: Unl
Heat Index: 72°   Visibility: 10mi
Dew Point: 52°   Wind: 7mph
Humidity: 50%   Direction: 80°E
Pressure: 30.09"   Gusts: NA
Location:  30.57°N, 100.64°W
Report Text: KSOA 210215Z AUTO 08006KT 10SM CLR 22/11 A3009 RMK AO2
Loading
Personal Weather Stations






























Interactive Weather Map New forecast layout! Learn more

10-Day Weather Forecast

Advertisements
Track Severe Weather on mobile